Terminal Aerodrome Forecast
Issued by NWS

Home | Current Version | Previous Version | Text Only | Print | Product List | Glossary On
Versions: 1 2 3 4 5 6 7 8 9 10 11 12 13 14 15 16 17 18 19 20 21 22 23 24 25 26 27 28 29 30 31 32 33 34
000
FTUS43 KDLH 160900 AAC
TAFHYR
TAF AMD
KHYR 160924Z 1609/1706 35010G20KT 3/4SM -SN BR SCT008 BKN012 OVC022
      TEMPO 1609/1612 1SM -SN BKN008 OVC016
     FM161200 35011G18KT 3SM -SN OVC008
     FM161600 34010KT P6SM VCSH OVC012
     FM162300 33007KT P6SM BKN018=

USA.gov is the U.S. government's official web portal to all federal, state and local government web resources and services.